»·PEaware :: N162PT KSNA-KCRQ

N162PT :: KSNA-KCRQ

FLIGHT INFORMATION

Flight Status: Arrived
Operator: Privately registered:
United States
More flights under this callsign
Pilot: Anonymous 16342 (16342)
Aircraft: CESSNA 172 SKYHAWK
(C172)
More flights by this aircraft type
Origin: KSNA John Wayne-Orange Co
United States
Destination: KCRQ McClellan-Palomar
United States
More flights between these airports :: More routes between these airports
Route: +V23 OCN
File this flight plan on PilotEdge
Remarks: I-2 Rating
Altitude:
(Current/Filed)
5,000ft
Speed:
(Current/Filed)
110kts
Departed: 09-Jun-18 08:48 AM
Arrived: 09-Jun-18 09:32 AM
Distance/Time
Traveled:
44nm/0:44
Distance/Time
To Go:
Arrived

Flight Plot

Page will automatically refresh every two minutes.


Map Options




Map Legend


Flown Route
Filed Route
Departure Airport
Arrival Airport
Navaid (VOR, NDB)
Fix

Horizontal Profiles

Position Reports

Time Latitude Longitude Heading Altitude Ground
Speed
09-Jun-18 08:21 33.675950 -117.870957 49 60ft 0kts
09-Jun-18 08:22 33.675950 -117.870957 49 60ft 0kts
09-Jun-18 08:23 33.675950 -117.870957 49 60ft 0kts
09-Jun-18 08:24 33.675950 -117.870957 49 60ft 0kts
09-Jun-18 08:25 33.675950 -117.870957 49 60ft 0kts
09-Jun-18 08:26 33.675950 -117.870957 49 60ft 0kts
09-Jun-18 08:27 33.675950 -117.870957 49 60ft 0kts
09-Jun-18 08:28 33.675950 -117.870957 49 60ft 0kts
09-Jun-18 08:29 33.675950 -117.870957 49 60ft 0kts
09-Jun-18 08:30 33.675950 -117.870957 49 60ft 0kts
09-Jun-18 08:31 33.675950 -117.870957 49 60ft 0kts
09-Jun-18 08:32 33.675950 -117.870957 49 60ft 0kts
09-Jun-18 08:33 33.675950 -117.870957 49 60ft 0kts
09-Jun-18 08:34 33.675950 -117.870957 49 60ft 0kts
09-Jun-18 08:35 33.675950 -117.870957 49 60ft 0kts
09-Jun-18 08:36 33.675950 -117.870957 49 60ft 0kts
09-Jun-18 08:37 33.675950 -117.870957 49 60ft 0kts
09-Jun-18 08:38 33.675950 -117.870957 49 60ft 0kts
09-Jun-18 08:39 33.675950 -117.870957 49 60ft 0kts
09-Jun-18 08:40 33.675950 -117.870957 49 60ft 0kts
09-Jun-18 08:41 33.675894 -117.870785 126 60ft 5kts
09-Jun-18 08:42 33.678110 -117.868868 27 60ft 13kts
09-Jun-18 08:43 33.681253 -117.866664 91 60ft 11kts
09-Jun-18 08:44 33.681206 -117.866420 107 60ft 0kts
09-Jun-18 08:45 33.681198 -117.866398 120 60ft 0kts
09-Jun-18 08:46 33.681198 -117.866398 120 60ft 0kts
09-Jun-18 08:47 33.680440 -117.865839 207 60ft 0kts
09-Jun-18 08:48 33.677767 -117.867549 206 60ft 67kts
09-Jun-18 08:49 33.653789 -117.873785 185 719ft 100kts
09-Jun-18 08:50 33.626848 -117.877507 185 1590ft 95kts
09-Jun-18 08:51 33.600496 -117.881134 185 2352ft 96kts
09-Jun-18 08:52 33.573713 -117.884767 185 3044ft 98kts
09-Jun-18 08:53 33.546373 -117.888364 185 3681ft 100kts
09-Jun-18 08:54 33.518645 -117.890833 160 4265ft 101kts
09-Jun-18 08:55 33.504633 -117.863218 111 4803ft 99kts
09-Jun-18 08:56 33.492343 -117.831024 111 5000ft 111kts
09-Jun-18 08:57 33.479382 -117.797135 111 5000ft 111kts
09-Jun-18 08:58 33.466493 -117.763645 111 5000ft 111kts
09-Jun-18 08:59 33.453612 -117.730399 111 5000ft 110kts
09-Jun-18 09:00 33.440604 -117.697049 111 4999ft 109kts
09-Jun-18 09:01 33.427646 -117.664018 111 4999ft 109kts
09-Jun-18 09:02 33.414760 -117.631290 111 4999ft 108kts
09-Jun-18 09:03 33.397465 -117.601637 128 4999ft 110kts
09-Jun-18 09:04 33.375889 -117.575428 131 4999ft 110kts
09-Jun-18 09:05 33.362120 -117.544433 101 5000ft 107kts
09-Jun-18 09:06 33.354193 -117.509662 101 5000ft 108kts
09-Jun-18 09:07 33.346332 -117.474508 101 5000ft 109kts
09-Jun-18 09:08 33.338627 -117.439262 101 5000ft 110kts
09-Jun-18 09:09 33.331035 -117.403637 101 5000ft 110kts
09-Jun-18 09:10 33.324212 -117.370761 101 5000ft 111kts
09-Jun-18 09:11 33.319448 -117.336263 101 4999ft 109kts
09-Jun-18 09:12 33.314842 -117.300189 101 4999ft 110kts
09-Jun-18 09:13 33.310155 -117.264028 101 4999ft 110kts
09-Jun-18 09:14 33.305314 -117.227514 101 4999ft 111kts
09-Jun-18 09:15 33.300309 -117.190863 101 4999ft 112kts
09-Jun-18 09:16 33.295101 -117.154077 101 4999ft 113kts
09-Jun-18 09:17 33.284615 -117.118919 131 4839ft 122kts
09-Jun-18 09:18 33.262985 -117.087182 131 4500ft 112kts
09-Jun-18 09:19 33.242886 -117.058077 131 4018ft 122kts
09-Jun-18 09:20 33.220790 -117.026951 131 3504ft 113kts
09-Jun-18 09:21 33.202333 -117.001186 131 3505ft 101kts
09-Jun-18 09:22 33.179493 -117.000990 229 3504ft 104kts
09-Jun-18 09:23 33.168260 -117.032036 259 3503ft 105kts
09-Jun-18 09:24 33.162492 -117.067395 259 3302ft 107kts
09-Jun-18 09:25 33.157242 -117.100055 259 3299ft 95kts
09-Jun-18 09:26 33.151676 -117.134941 259 2722ft 110kts
09-Jun-18 09:27 33.146026 -117.170114 258 2134ft 100kts
09-Jun-18 09:28 33.141084 -117.200717 258 1607ft 90kts
09-Jun-18 09:29 33.136762 -117.227499 258 1148ft 72kts
09-Jun-18 09:30 33.133083 -117.250215 258 740ft 67kts
09-Jun-18 09:31 33.129620 -117.271777 258 367ft 63kts
09-Jun-18 09:32 33.127722 -117.279705 223 304ft 5kts
09-Jun-18 09:33 33.127287 -117.278598 177 304ft 0kts
09-Jun-18 09:34 33.127287 -117.278598 177 304ft 0kts
09-Jun-18 09:35 33.127287 -117.278598 177 304ft 0kts
09-Jun-18 09:36 33.127287 -117.278598 177 304ft 0kts
09-Jun-18 09:37 33.127287 -117.278598 177 304ft 0kts
09-Jun-18 09:38 33.127287 -117.278598 177 304ft 0kts

Navigation Log

Ident Type
Flight plan parsing failed, navigation log unavailable